createdAt,value
2023-09-16T00:04:36.637Z,16.80
2023-09-16T00:09:39.384Z,16.78
2023-09-16T00:14:40.966Z,16.77
2023-09-16T00:19:42.506Z,16.76
2023-09-16T00:24:44.931Z,16.74
2023-09-16T00:29:46.316Z,16.73
2023-09-16T00:34:47.783Z,16.73
2023-09-16T00:39:49.181Z,16.75
2023-09-16T00:44:50.902Z,16.75
2023-09-16T00:49:52.289Z,16.77
2023-09-16T00:54:55.371Z,16.77
2023-09-16T00:59:56.803Z,16.77
2023-09-16T01:04:58.268Z,16.76
2023-09-16T01:10:00.515Z,16.71
2023-09-16T01:15:02.067Z,16.67
2023-09-16T01:20:07.530Z,16.63
2023-09-16T01:25:09.598Z,16.60
2023-09-16T01:30:11.438Z,16.59
2023-09-16T01:35:15.136Z,16.58
2023-09-16T01:40:16.722Z,16.54
2023-09-16T01:45:18.288Z,16.51
2023-09-16T01:50:20.358Z,16.51
2023-09-16T01:55:22.560Z,16.49
2023-09-16T02:00:23.920Z,16.47
2023-09-16T02:05:25.320Z,16.45
2023-09-16T02:10:27.917Z,16.42
2023-09-16T02:15:29.585Z,16.40
2023-09-16T02:20:30.991Z,16.41
2023-09-16T02:25:35.637Z,16.39
2023-09-16T02:30:37.040Z,16.38
2023-09-16T02:35:39.849Z,16.37
2023-09-16T02:40:41.929Z,16.35
2023-09-16T02:45:44.175Z,16.29
2023-09-16T02:50:47.117Z,16.25
2023-09-16T02:55:48.636Z,16.21
2023-09-16T03:00:50.429Z,16.18
2023-09-16T03:05:52.790Z,16.16
2023-09-16T03:11:04.734Z,16.12
2023-09-16T03:16:15.362Z,16.10
2023-09-16T03:21:18.371Z,16.06
2023-09-16T03:26:19.936Z,16.03
2023-09-16T03:31:24.185Z,16.01
2023-09-16T03:36:26.561Z,16.00
2023-09-16T03:41:27.955Z,15.98
2023-09-16T03:46:33.363Z,15.98
2023-09-16T03:51:38.320Z,15.96
2023-09-16T03:56:41.820Z,15.92
2023-09-16T04:01:45.516Z,15.90
2023-09-16T04:06:47.101Z,15.86
2023-09-16T04:11:48.535Z,15.84
2023-09-16T04:16:49.924Z,15.81
2023-09-16T04:21:52.360Z,15.78
2023-09-16T04:26:53.932Z,15.75
2023-09-16T04:31:55.417Z,15.72
2023-09-16T04:36:56.948Z,15.72
2023-09-16T04:41:58.525Z,15.72
2023-09-16T04:47:00.837Z,15.72
2023-09-16T04:52:05.281Z,15.70
2023-09-16T04:57:06.898Z,15.65
2023-09-16T05:02:08.414Z,15.60
2023-09-16T05:07:09.985Z,15.57
2023-09-16T05:12:11.487Z,15.55
2023-09-16T05:17:13.375Z,15.56
2023-09-16T05:22:14.943Z,15.58
2023-09-16T05:27:16.565Z,15.61
2023-09-16T05:32:18.135Z,15.65
2023-09-16T05:37:19.617Z,15.69
2023-09-16T05:42:21.066Z,15.77
2023-09-16T05:47:22.700Z,15.86
2023-09-16T05:52:24.228Z,15.97
2023-09-16T05:57:25.702Z,16.10
2023-09-16T06:02:27.250Z,16.24
2023-09-16T06:07:28.750Z,16.44
2023-09-16T06:12:30.126Z,16.70
2023-09-16T06:17:31.501Z,16.89
2023-09-16T06:22:33.043Z,16.93
2023-09-16T06:27:35.483Z,16.92
2023-09-16T06:32:36.909Z,16.96
2023-09-16T06:37:38.356Z,17.01
2023-09-16T06:42:40.941Z,17.06
2023-09-16T06:47:45.824Z,17.13
2023-09-16T06:52:47.197Z,17.22
2023-09-16T06:57:48.712Z,17.33
2023-09-16T07:02:50.231Z,17.42
2023-09-16T07:07:53.712Z,17.49
2023-09-16T07:12:55.122Z,17.57
2023-09-16T07:17:56.651Z,17.62
2023-09-16T07:22:58.149Z,17.70
2023-09-16T07:27:59.653Z,17.78
2023-09-16T07:33:01.348Z,17.86
2023-09-16T07:38:03.030Z,17.94
2023-09-16T07:43:09.705Z,18.05
2023-09-16T07:48:11.218Z,18.14
2023-09-16T07:53:12.831Z,18.24
2023-09-16T07:58:14.288Z,18.37
2023-09-16T08:03:15.838Z,18.50
2023-09-16T08:08:17.683Z,18.60
2023-09-16T08:13:19.363Z,18.72
2023-09-16T08:18:20.747Z,18.85
2023-09-16T08:23:22.110Z,18.98
2023-09-16T08:28:23.626Z,19.12
2023-09-16T08:33:25.045Z,19.22
2023-09-16T08:38:26.576Z,19.31
2023-09-16T08:43:36.976Z,19.43
2023-09-16T08:48:42.075Z,19.56
2023-09-16T08:53:43.903Z,19.71
2023-09-16T08:58:45.818Z,19.82
2023-09-16T09:03:47.443Z,19.93
2023-09-16T09:08:49.342Z,20.01
2023-09-16T09:13:51.755Z,20.11
2023-09-16T09:18:56.491Z,20.21
2023-09-16T09:23:59.162Z,20.32
2023-09-16T09:29:00.616Z,20.41
2023-09-16T09:34:02.044Z,20.49
2023-09-16T09:39:03.825Z,20.59
2023-09-16T09:44:05.378Z,20.70
2023-09-16T09:49:07.079Z,20.81
2023-09-16T09:54:08.661Z,20.91
2023-09-16T09:59:10.503Z,21.01
2023-09-16T10:04:11.933Z,21.10
2023-09-16T10:09:13.862Z,21.22
2023-09-16T10:14:15.339Z,21.35
2023-09-16T10:19:16.888Z,21.45
2023-09-16T10:24:18.362Z,21.57
2023-09-16T10:29:20.123Z,21.71
2023-09-16T10:34:21.568Z,21.86
2023-09-16T10:39:23.670Z,21.99
2023-09-16T10:44:25.162Z,22.09
2023-09-16T10:49:26.627Z,22.21
2023-09-16T10:54:32.618Z,22.36
2023-09-16T10:59:35.788Z,22.51
2023-09-16T11:04:37.394Z,22.59
2023-09-16T11:09:39.788Z,22.67
2023-09-16T11:14:41.198Z,22.76
2023-09-16T11:19:43.225Z,22.85
2023-09-16T11:24:44.606Z,22.95
2023-09-16T11:29:50.477Z,23.03
2023-09-16T11:34:59.553Z,23.13
2023-09-16T11:40:02.104Z,23.26
2023-09-16T11:45:03.762Z,23.36
2023-09-16T11:50:08.338Z,23.45
2023-09-16T11:55:09.803Z,23.53
2023-09-16T12:00:12.171Z,23.62
2023-09-16T12:05:15.195Z,23.69
2023-09-16T12:10:16.621Z,23.82
2023-09-16T12:15:18.342Z,23.92
2023-09-16T12:20:20.599Z,24.01
2023-09-16T12:25:22.036Z,24.07
2023-09-16T12:30:23.482Z,24.10
2023-09-16T12:35:24.958Z,24.18
2023-09-16T12:40:26.481Z,24.28
2023-09-16T12:45:28.522Z,24.35
2023-09-16T12:50:30.264Z,24.41
2023-09-16T12:55:31.741Z,24.48
2023-09-16T13:00:34.172Z,24.53
2023-09-16T13:05:36.724Z,24.52
2023-09-16T13:10:38.415Z,24.55
2023-09-16T13:15:42.587Z,24.61
2023-09-16T13:20:44.173Z,24.65
2023-09-16T13:25:45.611Z,24.69
2023-09-16T13:30:49.564Z,24.77
2023-09-16T13:35:51.005Z,24.83
2023-09-16T13:40:52.413Z,24.83
2023-09-16T13:45:53.901Z,24.82
2023-09-16T13:50:55.465Z,24.85
2023-09-16T13:55:57.177Z,24.89
2023-09-16T14:00:58.974Z,24.92
2023-09-16T14:06:00.613Z,24.94
2023-09-16T14:11:01.983Z,24.96
2023-09-16T14:16:03.510Z,24.97
2023-09-16T14:21:06.116Z,24.99
2023-09-16T14:26:07.492Z,24.98
2023-09-16T14:31:08.976Z,24.96
2023-09-16T14:36:10.429Z,24.92
2023-09-16T14:41:11.816Z,24.89
2023-09-16T14:46:13.252Z,24.87
2023-09-16T14:51:14.649Z,24.87
2023-09-16T14:56:15.994Z,24.83
2023-09-16T15:01:20.458Z,24.82
2023-09-16T15:06:22.017Z,24.81
2023-09-16T15:11:26.853Z,24.82
2023-09-16T15:16:28.351Z,25.03
2023-09-16T15:21:29.787Z,25.01
2023-09-16T15:26:31.335Z,24.88
2023-09-16T15:31:37.641Z,24.79
2023-09-16T15:36:39.084Z,24.71
2023-09-16T15:41:40.781Z,24.66
2023-09-16T15:46:42.219Z,24.76
2023-09-16T15:51:43.666Z,24.78
2023-09-16T15:56:45.124Z,24.66
2023-09-16T16:01:46.816Z,24.55
2023-09-16T16:06:48.266Z,24.45
2023-09-16T16:11:49.692Z,24.37
2023-09-16T16:16:51.267Z,24.28
2023-09-16T16:21:52.799Z,24.21
2023-09-16T16:26:54.166Z,24.11
2023-09-16T16:31:55.727Z,24.01
2023-09-16T16:36:57.243Z,23.91
2023-09-16T16:41:58.673Z,23.79
2023-09-16T16:47:01.811Z,23.66
2023-09-16T16:52:03.519Z,23.52
2023-09-16T16:57:05.056Z,23.37
2023-09-16T17:02:09.243Z,23.21
2023-09-16T17:07:11.152Z,23.03
2023-09-16T17:12:13.597Z,22.85
2023-09-16T17:17:16.687Z,22.70
2023-09-16T17:22:18.826Z,22.54
2023-09-16T17:27:20.259Z,22.40
2023-09-16T17:32:22.440Z,22.25
2023-09-16T17:37:24.008Z,22.12
2023-09-16T17:42:25.425Z,22.02
2023-09-16T17:47:26.788Z,21.92
2023-09-16T17:52:28.289Z,21.79
2023-09-16T17:57:29.923Z,21.71
2023-09-16T18:02:31.306Z,21.64
2023-09-16T18:07:32.770Z,21.56
2023-09-16T18:12:34.521Z,21.48
2023-09-16T18:17:35.938Z,21.40
2023-09-16T18:22:37.476Z,21.29
2023-09-16T18:27:38.961Z,21.15
2023-09-16T18:32:40.467Z,21.05
2023-09-16T18:37:45.599Z,20.95
2023-09-16T18:42:47.262Z,20.88
2023-09-16T18:47:48.736Z,20.84
2023-09-16T18:52:50.806Z,20.81
2023-09-16T18:57:52.213Z,20.79
2023-09-16T19:02:54.651Z,20.75
2023-09-16T19:07:56.255Z,20.73
2023-09-16T19:12:57.600Z,20.69
2023-09-16T19:17:59.002Z,20.68
2023-09-16T19:23:01.239Z,20.66
2023-09-16T19:28:03.156Z,20.62
2023-09-16T19:33:04.782Z,20.57
2023-09-16T19:38:06.317Z,20.55
2023-09-16T19:43:07.716Z,20.53
2023-09-16T19:48:09.238Z,20.49
2023-09-16T19:53:10.741Z,20.36
2023-09-16T19:58:12.273Z,20.29
2023-09-16T20:03:13.763Z,20.21
2023-09-16T20:08:15.850Z,20.10
2023-09-16T20:13:17.270Z,19.99
2023-09-16T20:18:18.683Z,19.94
2023-09-16T20:23:20.038Z,19.87
2023-09-16T20:28:21.465Z,19.80
2023-09-16T20:33:23.961Z,19.72
2023-09-16T20:38:25.336Z,19.67
2023-09-16T20:43:26.745Z,19.62
2023-09-16T20:48:28.113Z,19.56
2023-09-16T20:53:31.473Z,19.54
2023-09-16T20:58:32.845Z,19.51
2023-09-16T21:03:34.385Z,19.44
2023-09-16T21:08:35.812Z,19.39
2023-09-16T21:13:39.278Z,19.36
2023-09-16T21:18:40.925Z,19.33
2023-09-16T21:23:42.279Z,19.34
2023-09-16T21:28:43.838Z,19.33
2023-09-16T21:33:45.374Z,19.36
2023-09-16T21:38:46.795Z,19.42
2023-09-16T21:43:48.718Z,19.42
2023-09-16T21:48:50.413Z,19.43
2023-09-16T21:53:52.045Z,19.43
2023-09-16T21:58:56.597Z,19.40
2023-09-16T22:03:57.949Z,19.32
2023-09-16T22:08:59.326Z,19.26
2023-09-16T22:14:00.697Z,19.20
2023-09-16T22:19:02.109Z,19.16
2023-09-16T22:24:04.305Z,19.09
2023-09-16T22:29:05.669Z,19.03
2023-09-16T22:34:07.148Z,19.01
2023-09-16T22:39:09.338Z,19.01
2023-09-16T22:44:10.985Z,18.99
2023-09-16T22:49:12.434Z,18.99
2023-09-16T22:54:13.815Z,19.01
2023-09-16T22:59:15.239Z,19.03
2023-09-16T23:04:17.173Z,18.99
2023-09-16T23:09:18.571Z,19.00
2023-09-16T23:14:20.433Z,19.00
2023-09-16T23:19:21.997Z,19.00
2023-09-16T23:24:23.365Z,19.00
2023-09-16T23:29:24.754Z,18.99
2023-09-16T23:34:26.159Z,19.00
2023-09-16T23:39:27.752Z,19.00
2023-09-16T23:44:29.127Z,19.01
2023-09-16T23:49:30.596Z,18.99
2023-09-16T23:54:31.987Z,18.96
2023-09-16T23:59:33.446Z,18.93
